Time;durP1;ratioP1;P1;durP2;ratioP2;P2;SDS_P1;SDS_P2;PMS_P1;PMS_P2;Temp;Humidity;BMP_temperature;BMP_pressure;BME280_temperature;BME280_humidity;BME280_pressure;Samples;Min_cycle;Max_cycle;Signal;HPM_P1;HPM_P2
2021/12/24 00:02:17;;;;;;;37.43;25.27;;;8.10;99.90;;;;;;5012550;28;20201;-69
2021/12/24 00:04:43;;;;;;;35.40;25.47;;;8.20;99.90;;;;;;5013594;28;20185;-71
2021/12/24 00:07:08;;;;;;;34.73;24.67;;;8.10;99.90;;;;;;5015935;28;20195;-70
2021/12/24 00:09:36;;;;;;;33.40;23.83;;;8.10;99.90;;;;;;5014211;28;20211;-70
2021/12/24 00:12:10;;;;;;;35.73;24.23;;;8.20;99.90;;;;;;5014821;28;20194;-70
2021/12/24 00:14:36;;;;;;;31.30;23.60;;;8.20;99.90;;;;;;5015806;28;20418;-69
2021/12/24 00:17:04;;;;;;;28.93;21.93;;;8.30;99.90;;;;;;4998284;28;20529;-70
2021/12/24 00:22:21;;;;;;;29.70;21.10;;;8.20;99.90;;;;;;4996777;28;20416;-69
2021/12/24 00:35:42;;;;;;;31.83;21.90;;;8.20;99.90;;;;;;5004046;28;20438;-70
2021/12/24 00:38:10;;;;;;;29.37;20.50;;;8.20;99.90;;;;;;5017079;28;20446;-70
2021/12/24 00:40:44;;;;;;;27.40;20.40;;;8.20;99.90;;;;;;5017358;28;20423;-71
2021/12/24 00:43:12;;;;;;;26.73;18.90;;;8.20;99.90;;;;;;5016638;28;20487;-71
2021/12/24 00:45:42;;;;;;;25.00;18.53;;;8.20;99.90;;;;;;5015872;28;20976;-70
2021/12/24 00:48:09;;;;;;;28.40;19.33;;;8.20;99.90;;;;;;5014872;28;20465;-71
2021/12/24 00:50:57;;;;;;;27.90;19.73;;;8.20;99.90;;;;;;5016198;28;20441;-70
2021/12/24 00:55:58;;;;;;;27.03;19.13;;;8.20;99.90;;;;;;5016234;28;20392;-71
2021/12/24 00:58:24;;;;;;;25.47;17.80;;;8.10;99.90;;;;;;5015899;28;20499;-70
2021/12/24 01:00:50;;;;;;;24.50;18.37;;;8.10;99.90;;;;;;5014461;28;20420;-70
2021/12/24 01:03:16;;;;;;;20.20;17.40;;;8.20;99.90;;;;;;5016612;28;20267;-70
2021/12/24 01:05:42;;;;;;;22.50;16.97;;;8.10;99.90;;;;;;5014651;28;20454;-70
2021/12/24 01:08:10;;;;;;;21.40;16.53;;;8.10;99.90;;;;;;5015894;28;20209;-70
2021/12/24 01:10:40;;;;;;;19.97;15.67;;;8.10;99.90;;;;;;5016136;28;20893;-70
2021/12/24 01:13:06;;;;;;;20.37;15.80;;;8.20;99.90;;;;;;5013593;28;20423;-70
2021/12/24 01:15:34;;;;;;;24.80;17.83;;;8.10;99.90;;;;;;5015807;28;20496;-70
2021/12/24 01:18:18;;;;;;;22.00;16.17;;;8.20;99.90;;;;;;5015210;28;20284;-70
2021/12/24 01:20:46;;;;;;;22.83;16.40;;;8.20;99.90;;;;;;5015166;28;20410;-69
2021/12/24 01:23:29;;;;;;;25.90;18.57;;;8.30;99.90;;;;;;5015063;28;20420;-69
2021/12/24 01:26:15;;;;;;;25.10;17.63;;;8.20;99.90;;;;;;5014935;28;20452;-69
2021/12/24 01:29:09;;;;;;;21.60;16.97;;;8.30;99.90;;;;;;5015136;28;20467;-69
2021/12/24 01:45:14;;;;;;;24.67;18.83;;;8.20;99.90;;;;;;5015331;28;20460;-70
2021/12/24 01:47:39;;;;;;;28.27;20.83;;;8.30;99.90;;;;;;5015100;28;20466;-70
2021/12/24 01:50:05;;;;;;;27.17;20.13;;;8.30;99.90;;;;;;5023201;28;20478;-69
2021/12/24 01:52:31;;;;;;;28.10;22.10;;;8.30;99.90;;;;;;5021786;28;20177;-71
2021/12/24 01:54:56;;;;;;;31.07;22.63;;;8.30;99.90;;;;;;5014246;28;20507;-71
2021/12/24 01:57:22;;;;;;;28.90;20.70;;;8.30;99.90;;;;;;5014859;28;20194;-70
2021/12/24 01:59:47;;;;;;;31.43;21.70;;;8.30;99.90;;;;;;5016583;28;20188;-70
2021/12/24 02:02:13;;;;;;;32.67;23.97;;;8.30;99.90;;;;;;5015314;28;20560;-70
2021/12/24 02:04:38;;;;;;;31.07;23.20;;;8.30;99.90;;;;;;5014538;28;20191;-70
2021/12/24 02:07:04;;;;;;;32.37;23.50;;;8.30;99.90;;;;;;5013879;28;20195;-70
2021/12/24 02:09:30;;;;;;;30.50;21.77;;;8.30;99.90;;;;;;5014817;28;20192;-69
2021/12/24 02:11:57;;;;;;;29.60;21.80;;;8.30;99.90;;;;;;5014570;28;20441;-69
2021/12/24 02:14:25;;;;;;;25.67;20.13;;;8.40;99.90;;;;;;5014319;28;20414;-70
2021/12/24 02:30:19;;;;;;;32.57;23.10;;;8.40;99.90;;;;;;5013742;28;20403;-70
2021/12/24 02:32:44;;;;;;;34.50;22.50;;;8.40;99.90;;;;;;5013755;28;20433;-70
2021/12/24 02:35:10;;;;;;;30.53;23.37;;;8.30;99.90;;;;;;5013928;28;20415;-71
2021/12/24 02:37:36;;;;;;;33.10;23.87;;;8.40;99.90;;;;;;5013611;28;20202;-71
2021/12/24 02:40:05;;;;;;;39.63;27.10;;;8.30;99.90;;;;;;5013729;28;20484;-70
2021/12/24 02:42:31;;;;;;;36.03;27.30;;;8.40;99.90;;;;;;5012984;28;20324;-71
2021/12/24 02:44:57;;;;;;;36.37;25.97;;;8.40;99.90;;;;;;5013668;28;20509;-71
2021/12/24 02:55:06;;;;;;;33.50;24.80;;;8.40;99.90;;;;;;5015215;28;20540;-70
2021/12/24 02:57:34;;;;;;;32.50;24.93;;;8.40;99.90;;;;;;5013439;28;20995;-71
2021/12/24 03:00:06;;;;;;;34.23;24.30;;;8.40;99.90;;;;;;5014024;28;20939;-71
2021/12/24 03:02:32;;;;;;;36.33;25.17;;;8.40;99.90;;;;;;5012886;28;20966;-70
2021/12/24 03:04:58;;;;;;;32.53;25.03;;;8.40;99.90;;;;;;5013786;28;20428;-71
2021/12/24 03:07:24;;;;;;;32.53;23.07;;;8.40;99.90;;;;;;5013109;28;20466;-70
2021/12/24 03:09:50;;;;;;;36.57;25.23;;;8.50;99.90;;;;;;5013311;28;20419;-70
2021/12/24 03:12:15;;;;;;;35.00;24.07;;;8.50;99.90;;;;;;5012820;28;20179;-71
2021/12/24 03:14:41;;;;;;;33.47;25.50;;;8.50;99.90;;;;;;5013229;28;20490;-70
2021/12/24 03:17:11;;;;;;;33.93;24.43;;;8.60;99.90;;;;;;5013330;28;20224;-70
2021/12/24 03:19:37;;;;;;;31.47;24.27;;;8.60;99.90;;;;;;5014189;28;20387;-70
2021/12/24 03:22:30;;;;;;;35.23;25.07;;;8.50;99.90;;;;;;5011792;28;20427;-70
2021/12/24 03:24:56;;;;;;;35.10;24.90;;;8.50;99.90;;;;;;5014111;28;20396;-70
2021/12/24 03:27:22;;;;;;;38.30;25.20;;;8.50;99.90;;;;;;5013008;28;20484;-70
2021/12/24 03:29:49;;;;;;;33.17;23.27;;;8.50;99.90;;;;;;5012900;28;20184;-70
2021/12/24 03:32:14;;;;;;;33.47;22.80;;;8.60;99.90;;;;;;5013287;28;20413;-70
2021/12/24 03:34:40;;;;;;;29.60;21.83;;;8.60;99.90;;;;;;5012825;28;20426;-70
2021/12/24 03:37:07;;;;;;;28.83;21.73;;;8.60;99.90;;;;;;5013197;28;20192;-71
2021/12/24 03:39:34;;;;;;;29.00;20.83;;;8.50;99.90;;;;;;5015615;28;20438;-70
2021/12/24 03:42:00;;;;;;;30.40;21.60;;;8.50;99.90;;;;;;5017724;28;20411;-70
2021/12/24 03:44:37;;;;;;;33.70;25.07;;;8.50;99.90;;;;;;5017284;28;20442;-70
2021/12/24 03:47:12;;;;;;;35.80;24.63;;;8.60;99.90;;;;;;5016979;28;20453;-69
2021/12/24 03:49:45;;;;;;;33.30;25.10;;;8.60;99.90;;;;;;5017291;28;20501;-69
2021/12/24 03:54:58;;;;;;;36.27;26.07;;;8.50;99.90;;;;;;5017643;28;20422;-71
2021/12/24 03:57:39;;;;;;;32.50;22.77;;;8.50;99.90;;;;;;5017170;28;20407;-69
2021/12/24 04:00:10;;;;;;;31.60;24.57;;;8.50;99.90;;;;;;5017698;28;20431;-70
2021/12/24 04:02:36;;;;;;;34.57;24.00;;;8.50;99.90;;;;;;5017086;28;20838;-70
2021/12/24 04:05:01;;;;;;;38.87;27.03;;;8.60;99.90;;;;;;5021576;28;20492;-71
2021/12/24 04:07:27;;;;;;;31.83;24.20;;;8.50;99.90;;;;;;5011890;28;20209;-71
2021/12/24 04:10:05;;;;;;;33.30;24.30;;;8.50;99.90;;;;;;5007779;28;20180;-70
2021/12/24 04:12:33;;;;;;;29.43;22.60;;;8.50;99.90;;;;;;4997284;28;20164;-70
2021/12/24 04:14:59;;;;;;;36.53;24.77;;;8.60;99.90;;;;;;4999051;28;20518;-71
2021/12/24 04:17:25;;;;;;;30.60;23.60;;;8.60;99.90;;;;;;4997046;28;20444;-70
2021/12/24 04:25:20;;;;;;;35.40;24.53;;;8.60;99.90;;;;;;4997706;28;20451;-70
2021/12/24 04:27:46;;;;;;;33.37;25.40;;;8.60;99.90;;;;;;4996173;28;20471;-71
2021/12/24 04:30:16;;;;;;;33.73;26.03;;;8.60;99.90;;;;;;5029622;23;20505;-69
2021/12/24 04:35:20;;;;;;;32.37;24.23;;;8.60;99.90;;;;;;5015462;28;20498;-68
2021/12/24 05:02:02;;;;;;;35.43;24.00;;;8.60;99.90;;;;;;5013976;28;20496;-69
2021/12/24 05:04:32;;;;;;;39.70;25.20;;;8.60;99.90;;;;;;5014638;28;20414;-68
2021/12/24 05:07:07;;;;;;;38.60;24.00;;;8.60;99.90;;;;;;5014009;28;20513;-68
2021/12/24 05:09:35;;;;;;;33.50;24.10;;;8.60;99.90;;;;;;5014338;28;20916;-68
2021/12/24 05:12:01;;;;;;;35.03;24.70;;;8.60;99.90;;;;;;4995995;28;20428;-68
2021/12/24 05:14:30;;;;;;;34.43;23.43;;;8.60;99.90;;;;;;5014240;28;20757;-68
2021/12/24 05:17:15;;;;;;;39.00;24.50;;;8.60;99.90;;;;;;5013722;28;20762;-69
2021/12/24 05:22:25;;;;;;;37.47;24.90;;;8.60;99.90;;;;;;5013507;28;20426;-68
2021/12/24 05:24:50;;;;;;;34.17;22.93;;;8.70;99.90;;;;;;5014212;28;20419;-69
2021/12/24 05:27:16;;;;;;;33.87;24.67;;;8.70;99.90;;;;;;5014502;28;20244;-69
2021/12/24 05:29:41;;;;;;;29.77;21.87;;;8.60;99.90;;;;;;5015191;28;20297;-69
2021/12/24 05:32:07;;;;;;;34.93;23.00;;;8.60;99.90;;;;;;5014449;28;20539;-69
2021/12/24 05:34:33;;;;;;;35.90;23.27;;;8.70;99.90;;;;;;5013695;28;20183;-68
2021/12/24 05:36:59;;;;;;;37.43;24.10;;;8.70;99.90;;;;;;4996054;28;20188;-68
2021/12/24 05:39:24;;;;;;;39.53;24.03;;;8.60;99.90;;;;;;5014293;28;20436;-68
2021/12/24 05:41:50;;;;;;;31.17;21.67;;;8.70;99.90;;;;;;5013972;28;20179;-69
2021/12/24 05:44:17;;;;;;;33.70;23.73;;;8.70;99.90;;;;;;5013243;28;20188;-68
2021/12/24 05:46:45;;;;;;;33.03;22.37;;;8.70;99.90;;;;;;5013611;28;20941;-69
2021/12/24 05:49:10;;;;;;;34.50;21.70;;;8.70;99.90;;;;;;5013264;28;20912;-68
2021/12/24 05:51:36;;;;;;;36.00;24.20;;;8.70;99.90;;;;;;5013385;28;20407;-69
2021/12/24 05:54:02;;;;;;;35.77;23.63;;;8.60;99.90;;;;;;5013281;28;20175;-69
2021/12/24 05:56:28;;;;;;;32.37;22.90;;;8.70;99.90;;;;;;5013681;28;20168;-69
2021/12/24 05:58:53;;;;;;;34.97;23.30;;;8.70;99.90;;;;;;5013673;28;20413;-69
2021/12/24 06:01:19;;;;;;;34.83;22.73;;;8.70;99.90;;;;;;5013575;28;20206;-69
2021/12/24 06:03:44;;;;;;;35.13;22.83;;;8.60;99.90;;;;;;5013799;28;20175;-69
2021/12/24 06:06:10;;;;;;;33.50;22.57;;;8.60;99.90;;;;;;5012993;28;20188;-69
2021/12/24 06:08:36;;;;;;;33.23;22.30;;;8.60;99.90;;;;;;5013457;28;20199;-69
2021/12/24 06:11:01;;;;;;;39.67;22.93;;;8.60;99.90;;;;;;5012804;28;20256;-69
2021/12/24 06:13:29;;;;;;;30.53;21.83;;;8.60;99.90;;;;;;5013128;28;20251;-70
2021/12/24 06:15:54;;;;;;;31.77;22.70;;;8.70;99.90;;;;;;4994879;28;20186;-70
2021/12/24 06:18:30;;;;;;;36.83;22.73;;;8.70;99.90;;;;;;4995402;28;20406;-69
2021/12/24 06:20:58;;;;;;;32.40;22.20;;;8.80;99.90;;;;;;4995463;28;20668;-69
2021/12/24 06:23:25;;;;;;;32.67;22.50;;;8.80;99.90;;;;;;5013491;28;20440;-69
2021/12/24 06:25:53;;;;;;;37.93;21.93;;;8.70;99.90;;;;;;5013149;28;21049;-70
2021/12/24 06:28:19;;;;;;;36.97;21.80;;;8.70;99.90;;;;;;5012985;28;20462;-68
2021/12/24 06:30:45;;;;;;;29.07;21.50;;;8.70;99.90;;;;;;5005292;28;20466;-69
2021/12/24 06:33:11;;;;;;;34.70;22.00;;;8.70;99.90;;;;;;5012391;28;20410;-69
2021/12/24 06:35:37;;;;;;;35.30;21.40;;;8.70;99.90;;;;;;5011806;28;20410;-70
2021/12/24 06:38:03;;;;;;;31.87;23.13;;;8.70;99.90;;;;;;5012314;28;20710;-69
2021/12/24 06:40:29;;;;;;;32.37;21.80;;;8.70;99.90;;;;;;5012823;28;20811;-69
2021/12/24 06:42:55;;;;;;;31.50;21.47;;;8.80;99.90;;;;;;5013335;28;20416;-68
2021/12/24 06:45:24;;;;;;;34.97;22.13;;;8.80;99.90;;;;;;5013058;28;20413;-67
2021/12/24 06:47:51;;;;;;;32.13;22.13;;;8.80;99.90;;;;;;5012706;28;20203;-68
2021/12/24 06:50:17;;;;;;;38.50;23.63;;;8.80;99.90;;;;;;5012573;28;20442;-68
2021/12/24 06:52:42;;;;;;;32.10;22.33;;;8.80;99.90;;;;;;5012821;28;20416;-69
2021/12/24 06:55:10;;;;;;;34.53;23.60;;;8.90;99.90;;;;;;4995182;28;20180;-68
2021/12/24 06:57:36;;;;;;;36.13;23.63;;;8.80;99.90;;;;;;5012524;28;20179;-69
2021/12/24 07:00:03;;;;;;;34.13;23.07;;;8.80;99.90;;;;;;5012854;28;20432;-69
2021/12/24 07:02:30;;;;;;;35.10;23.83;;;8.80;99.90;;;;;;5012459;28;20206;-69
2021/12/24 07:04:55;;;;;;;34.50;23.03;;;8.80;99.90;;;;;;5013636;28;20428;-69
2021/12/24 07:07:21;;;;;;;38.73;24.20;;;8.80;99.90;;;;;;5014094;28;20214;-69
2021/12/24 07:09:46;;;;;;;36.83;23.07;;;8.80;99.90;;;;;;5016899;28;20198;-69
2021/12/24 07:12:14;;;;;;;37.10;23.83;;;8.80;99.90;;;;;;5016805;28;20190;-69
2021/12/24 07:14:41;;;;;;;36.67;22.53;;;8.80;99.90;;;;;;5021876;28;20697;-69
2021/12/24 07:17:07;;;;;;;34.10;22.00;;;8.90;99.90;;;;;;5021673;28;20891;-68
2021/12/24 07:19:33;;;;;;;35.17;21.30;;;8.90;99.90;;;;;;5019367;28;20470;-69
2021/12/24 07:21:58;;;;;;;31.00;20.17;;;8.90;99.90;;;;;;5018781;28;20441;-69
2021/12/24 07:24:24;;;;;;;35.87;23.90;;;8.90;99.90;;;;;;5001630;28;20186;-69
2021/12/24 07:26:49;;;;;;;36.40;21.67;;;8.90;99.90;;;;;;5019003;28;20182;-69
2021/12/24 07:29:15;;;;;;;30.80;22.10;;;8.90;99.90;;;;;;5019133;28;20167;-68
2021/12/24 07:31:40;;;;;;;39.80;22.03;;;8.90;99.90;;;;;;5015544;28;20246;-69
2021/12/24 07:34:06;;;;;;;33.10;21.23;;;8.90;99.90;;;;;;5018856;28;20561;-69
2021/12/24 07:36:32;;;;;;;33.47;22.30;;;8.90;99.90;;;;;;5018843;28;20201;-69
2021/12/24 07:38:57;;;;;;;29.77;20.23;;;8.90;99.90;;;;;;5019256;28;20214;-69
2021/12/24 07:41:24;;;;;;;34.23;21.07;;;8.90;99.90;;;;;;5019011;28;20198;-69
2021/12/24 07:43:50;;;;;;;30.10;20.67;;;8.90;99.90;;;;;;5018738;28;20178;-69
2021/12/24 07:46:16;;;;;;;32.77;22.60;;;8.90;99.90;;;;;;5018771;28;20523;-70
2021/12/24 07:48:48;;;;;;;32.73;21.33;;;8.90;99.90;;;;;;5019216;28;20515;-69
2021/12/24 07:54:00;;;;;;;36.30;22.03;;;8.90;99.90;;;;;;5019319;28;20476;-68
2021/12/24 07:56:30;;;;;;;31.33;22.07;;;8.90;99.90;;;;;;5019698;28;20843;-68
2021/12/24 07:58:57;;;;;;;32.63;22.17;;;8.90;99.90;;;;;;5020524;28;20480;-69
2021/12/24 08:01:27;;;;;;;34.17;21.70;;;8.90;99.90;;;;;;5014505;28;20452;-69
2021/12/24 08:03:53;;;;;;;34.70;21.20;;;8.90;99.90;;;;;;5019875;28;20421;-69
2021/12/24 08:06:20;;;;;;;37.80;23.07;;;8.90;99.90;;;;;;5021146;28;20512;-69
2021/12/24 08:08:46;;;;;;;41.60;23.43;;;8.90;99.90;;;;;;5024819;28;20454;-70
2021/12/24 08:11:11;;;;;;;33.00;21.60;;;8.90;99.90;;;;;;5040783;28;20450;-69
2021/12/24 08:13:37;;;;;;;28.60;19.50;;;8.90;99.90;;;;;;5027895;28;20197;-69
2021/12/24 08:16:03;;;;;;;34.90;21.60;;;8.90;99.90;;;;;;5029875;28;20222;-69
2021/12/24 08:18:28;;;;;;;34.00;20.10;;;8.90;99.90;;;;;;5001106;28;20191;-69
2021/12/24 08:20:54;;;;;;;31.80;20.70;;;8.90;99.90;;;;;;5028572;28;21027;-69
2021/12/24 08:23:20;;;;;;;34.10;20.70;;;8.90;99.90;;;;;;5020230;28;20262;-69
2021/12/24 08:25:45;;;;;;;29.17;19.10;;;8.90;99.90;;;;;;5016810;28;20187;-69
2021/12/24 08:28:11;;;;;;;33.63;21.00;;;8.90;99.90;;;;;;5010910;28;20208;-68
2021/12/24 08:30:36;;;;;;;37.33;20.90;;;8.90;99.90;;;;;;5008356;28;20250;-69
2021/12/24 08:33:02;;;;;;;39.90;21.30;;;8.90;99.90;;;;;;5013953;28;20557;-69
2021/12/24 08:35:28;;;;;;;34.10;20.37;;;8.90;99.90;;;;;;5016295;28;20184;-68
2021/12/24 08:37:55;;;;;;;40.23;21.27;;;8.90;99.90;;;;;;5021271;28;20198;-69
2021/12/24 08:40:20;;;;;;;29.10;20.27;;;9.00;99.90;;;;;;5024094;28;20870;-69
2021/12/24 08:42:46;;;;;;;29.10;21.50;;;9.00;99.90;;;;;;5019873;28;20433;-69
2021/12/24 08:45:12;;;;;;;33.53;23.00;;;9.00;99.90;;;;;;5026094;28;20464;-68
2021/12/24 08:47:39;;;;;;;40.30;22.07;;;9.00;99.90;;;;;;5024371;28;20566;-69
2021/12/24 08:50:07;;;;;;;35.33;22.73;;;9.00;99.90;;;;;;5019186;28;20485;-70
2021/12/24 08:52:33;;;;;;;35.17;21.37;;;9.10;99.90;;;;;;5014957;28;20418;-70
2021/12/24 08:54:58;;;;;;;34.50;22.07;;;9.00;99.90;;;;;;5003880;28;20424;-69
2021/12/24 08:57:24;;;;;;;34.07;21.63;;;9.00;99.90;;;;;;4995015;28;20211;-68
2021/12/24 08:59:50;;;;;;;32.73;21.77;;;9.00;99.90;;;;;;4995499;28;20206;-68
2021/12/24 09:02:16;;;;;;;31.77;21.43;;;9.00;99.90;;;;;;4995500;28;20180;-68
2021/12/24 09:04:41;;;;;;;36.53;19.77;;;9.00;99.90;;;;;;4994968;28;20253;-68
2021/12/24 09:07:07;;;;;;;35.37;22.63;;;9.00;99.90;;;;;;4999510;28;20458;-68
2021/12/24 09:09:32;;;;;;;41.23;21.10;;;9.10;99.90;;;;;;5007641;28;20249;-68
2021/12/24 09:11:58;;;;;;;37.53;24.23;;;9.20;99.90;;;;;;5006312;28;20210;-68
2021/12/24 09:14:25;;;;;;;38.87;22.33;;;9.20;99.90;;;;;;5009001;28;20227;-68
2021/12/24 09:16:52;;;;;;;31.93;22.10;;;9.20;99.90;;;;;;5015387;28;20215;-68
2021/12/24 09:19:23;;;;;;;35.17;21.37;;;9.20;99.90;;;;;;5010518;28;20469;-68
2021/12/24 09:21:48;;;;;;;32.63;20.53;;;9.30;99.90;;;;;;5009415;28;20481;-68
2021/12/24 09:24:16;;;;;;;33.90;21.30;;;9.30;99.90;;;;;;5013065;28;20449;-68
2021/12/24 09:26:42;;;;;;;27.97;19.93;;;9.40;99.90;;;;;;5000314;28;20510;-67
2021/12/24 09:29:09;;;;;;;26.13;19.40;;;9.40;99.90;;;;;;4998566;28;20432;-68
2021/12/24 09:31:36;;;;;;;38.60;21.73;;;9.50;99.90;;;;;;5013939;28;20184;-67
2021/12/24 09:34:02;;;;;;;34.30;19.33;;;9.50;99.90;;;;;;5011276;28;20914;-68
2021/12/24 09:36:28;;;;;;;29.40;19.73;;;9.50;99.90;;;;;;5008970;28;20430;-68
2021/12/24 09:38:57;;;;;;;27.00;19.17;;;9.50;99.90;;;;;;5011392;28;20433;-68
2021/12/24 09:41:23;;;;;;;31.30;19.37;;;9.40;99.90;;;;;;5012408;28;20457;-69
2021/12/24 09:43:49;;;;;;;26.97;18.50;;;9.40;99.90;;;;;;5014226;28;20513;-68
2021/12/24 09:46:15;;;;;;;30.90;17.10;;;9.40;99.90;;;;;;5014306;28;20490;-69
2021/12/24 09:48:41;;;;;;;27.90;17.00;;;9.30;99.90;;;;;;5014751;28;20198;-69
2021/12/24 09:51:07;;;;;;;31.00;16.53;;;9.30;99.90;;;;;;4996761;28;20273;-68
2021/12/24 09:53:33;;;;;;;24.43;15.40;;;9.30;99.90;;;;;;5003900;28;20427;-69
2021/12/24 09:55:58;;;;;;;26.80;15.80;;;9.30;99.90;;;;;;5008893;28;20418;-68
2021/12/24 09:58:24;;;;;;;27.20;15.73;;;9.20;99.90;;;;;;5014812;28;20422;-68
2021/12/24 10:00:50;;;;;;;24.90;15.40;;;9.20;99.90;;;;;;5011603;28;20211;-68
2021/12/24 10:03:36;;;;;;;24.83;15.20;;;9.20;99.90;;;;;;5011173;28;20186;-69
2021/12/24 10:06:04;;;;;;;28.33;17.10;;;9.20;99.90;;;;;;5013664;28;20452;-68
2021/12/24 10:08:30;;;;;;;23.20;16.07;;;9.20;99.90;;;;;;5010788;28;20595;-68
2021/12/24 10:11:16;;;;;;;30.30;15.63;;;9.20;99.90;;;;;;5013809;28;20466;-69
2021/12/24 10:13:43;;;;;;;27.67;15.50;;;9.20;99.90;;;;;;5023978;28;20422;-68
2021/12/24 10:16:12;;;;;;;23.90;15.40;;;9.20;99.90;;;;;;5022176;28;20414;-68
2021/12/24 10:18:50;;;;;;;20.63;14.40;;;9.20;99.90;;;;;;5013585;28;20437;-68
2021/12/24 10:21:24;;;;;;;21.13;13.63;;;9.10;99.90;;;;;;5030799;28;20445;-68
2021/12/24 10:23:53;;;;;;;19.30;13.00;;;9.20;99.90;;;;;;5022088;28;20816;-68
2021/12/24 10:26:28;;;;;;;24.73;14.67;;;9.20;99.90;;;;;;5012865;28;20414;-68
2021/12/24 10:28:58;;;;;;;22.90;13.83;;;9.20;99.90;;;;;;5023808;28;20457;-67
2021/12/24 10:31:48;;;;;;;26.33;13.87;;;9.20;99.90;;;;;;5050622;22;20547;-72
2021/12/24 10:34:23;;;;;;;23.80;15.30;;;9.20;99.90;;;;;;5003346;28;20454;-72
2021/12/24 10:37:01;;;;;;;21.67;14.00;;;9.20;99.90;;;;;;5011926;28;20933;-71
2021/12/24 10:39:32;;;;;;;27.10;14.83;;;9.20;99.90;;;;;;4993609;28;20425;-72
2021/12/24 10:42:00;;;;;;;20.80;13.90;;;9.20;99.90;;;;;;5012269;28;20957;-71
2021/12/24 10:44:32;;;;;;;24.60;14.27;;;9.20;99.90;;;;;;5012295;28;20819;-72
2021/12/24 10:47:03;;;;;;;25.13;14.20;;;9.20;99.90;;;;;;5012088;28;20410;-72
2021/12/24 10:52:27;;;;;;;26.87;14.53;;;9.30;99.90;;;;;;4974791;28;20438;-72
2021/12/24 10:54:58;;;;;;;23.40;13.40;;;9.30;99.90;;;;;;4974612;28;20385;-73
2021/12/24 10:57:30;;;;;;;24.47;14.00;;;9.40;99.90;;;;;;4978020;28;20438;-71
2021/12/24 10:59:58;;;;;;;18.37;12.83;;;9.40;99.90;;;;;;4984606;28;20549;-72
2021/12/24 11:02:35;;;;;;;23.30;12.37;;;9.40;99.90;;;;;;5004527;28;20441;-71
2021/12/24 11:05:02;;;;;;;20.10;12.60;;;9.40;99.90;;;;;;5001347;28;20417;-70
2021/12/24 11:07:38;;;;;;;19.03;13.30;;;9.40;99.90;;;;;;4974468;28;20467;-71
2021/12/24 11:10:12;;;;;;;26.17;13.67;;;9.40;99.90;;;;;;4993286;28;20417;-71
2021/12/24 11:12:40;;;;;;;22.10;12.97;;;9.50;99.90;;;;;;4993959;28;20509;-72
2021/12/24 11:15:23;;;;;;;19.57;13.03;;;9.50;99.90;;;;;;4991931;28;20409;-71
2021/12/24 11:17:51;;;;;;;22.30;12.07;;;9.30;99.90;;;;;;4992318;28;20775;-71
2021/12/24 11:20:18;;;;;;;16.23;12.23;;;9.40;99.90;;;;;;5003996;28;20479;-72
2021/12/24 11:22:53;;;;;;;19.07;13.10;;;9.40;99.90;;;;;;5000924;28;20446;-72
2021/12/24 11:25:20;;;;;;;19.67;12.53;;;9.30;99.90;;;;;;4991975;28;20422;-71
2021/12/24 11:27:46;;;;;;;20.67;13.67;;;9.30;99.90;;;;;;4991619;28;20467;-72
2021/12/24 11:30:12;;;;;;;20.30;14.87;;;9.30;99.90;;;;;;4987539;28;21021;-72
2021/12/24 11:32:38;;;;;;;27.97;15.47;;;9.30;99.90;;;;;;4992015;28;20513;-71
2021/12/24 11:35:05;;;;;;;23.87;14.00;;;9.30;99.90;;;;;;4987434;28;20436;-70
2021/12/24 11:37:31;;;;;;;20.63;13.10;;;9.30;99.90;;;;;;4979350;28;20468;-71
2021/12/24 11:39:58;;;;;;;20.40;14.60;;;9.30;99.90;;;;;;4987287;28;20919;-72
2021/12/24 11:42:28;;;;;;;20.93;13.50;;;9.40;99.90;;;;;;4988670;28;20529;-72
2021/12/24 11:44:54;;;;;;;22.20;14.30;;;9.40;99.90;;;;;;4988741;28;20435;-71
2021/12/24 11:47:20;;;;;;;20.97;13.73;;;9.30;99.90;;;;;;4988137;28;20482;-71
2021/12/24 11:49:46;;;;;;;18.60;13.40;;;9.30;99.90;;;;;;4988816;28;20473;-71
2021/12/24 11:52:12;;;;;;;18.70;14.00;;;9.30;99.90;;;;;;4987013;28;20441;-71
2021/12/24 11:54:38;;;;;;;24.27;13.67;;;9.20;99.90;;;;;;4989554;28;20187;-71
2021/12/24 11:57:15;;;;;;;26.37;15.13;;;9.10;99.90;;;;;;4988180;28;20187;-71
2021/12/24 11:59:41;;;;;;;25.20;13.90;;;9.10;99.90;;;;;;4988824;28;20447;-71
2021/12/24 12:02:07;;;;;;;19.30;13.90;;;9.20;99.90;;;;;;4993558;28;20481;-71
2021/12/24 12:04:32;;;;;;;23.53;13.80;;;9.20;99.90;;;;;;4992211;28;20417;-71
2021/12/24 12:07:15;;;;;;;25.53;15.07;;;9.10;99.90;;;;;;4991553;28;20270;-71
2021/12/24 12:09:42;;;;;;;17.10;13.33;;;9.20;99.90;;;;;;4976690;28;20280;-71
2021/12/24 12:12:10;;;;;;;26.60;14.80;;;9.20;99.90;;;;;;4991524;28;20464;-71
2021/12/24 12:14:37;;;;;;;27.70;14.43;;;9.20;99.90;;;;;;4992881;28;20500;-71
2021/12/24 12:17:06;;;;;;;22.40;13.30;;;9.20;99.90;;;;;;4991430;28;20419;-71
2021/12/24 12:22:45;;;;;;;23.23;12.47;;;9.20;99.90;;;;;;4991386;28;20458;-71
2021/12/24 12:25:14;;;;;;;17.27;12.10;;;9.30;99.90;;;;;;4992584;28;20434;-70
2021/12/24 12:27:44;;;;;;;23.43;13.30;;;9.30;99.90;;;;;;4991428;28;20986;-71
2021/12/24 12:30:39;;;;;;;22.17;12.93;;;9.30;99.90;;;;;;4992839;28;20513;-70
2021/12/24 12:33:11;;;;;;;17.10;12.10;;;9.30;99.90;;;;;;4991348;28;20473;-71
2021/12/24 12:35:45;;;;;;;23.67;12.87;;;9.30;99.90;;;;;;4992161;28;20432;-71
2021/12/24 12:38:44;;;;;;;22.67;14.40;;;9.20;99.90;;;;;;4991801;28;20423;-71
2021/12/24 12:41:24;;;;;;;22.63;13.60;;;9.30;99.90;;;;;;4988160;28;20539;-71
2021/12/24 12:43:52;;;;;;;21.67;13.43;;;9.30;99.90;;;;;;4985570;28;20425;-70
2021/12/24 12:46:21;;;;;;;17.93;11.90;;;9.30;99.90;;;;;;4990873;28;20531;-71
2021/12/24 12:48:49;;;;;;;21.00;13.00;;;9.30;99.90;;;;;;4991078;28;20459;-72
2021/12/24 12:51:16;;;;;;;22.10;13.80;;;9.30;99.90;;;;;;4991678;28;20467;-71
2021/12/24 12:53:42;;;;;;;19.20;14.00;;;9.30;99.90;;;;;;4991138;28;20423;-71
2021/12/24 12:56:18;;;;;;;21.60;14.30;;;9.30;99.90;;;;;;4986917;28;20867;-72
2021/12/24 12:58:48;;;;;;;25.07;13.90;;;9.30;99.90;;;;;;4990831;28;20422;-71
2021/12/24 13:01:17;;;;;;;18.67;13.40;;;9.30;99.90;;;;;;4998782;28;20427;-71
2021/12/24 13:03:55;;;;;;;21.63;14.30;;;9.30;99.90;;;;;;4987078;28;21255;-71
2021/12/24 13:06:22;;;;;;;22.87;14.00;;;9.30;99.90;;;;;;4995044;28;20453;-70
2021/12/24 13:08:47;;;;;;;24.17;13.93;;;9.30;99.90;;;;;;5005178;28;21062;-69
2021/12/24 13:11:16;;;;;;;27.93;14.63;;;9.30;99.90;;;;;;4992925;28;20549;-70
2021/12/24 13:13:57;;;;;;;22.87;14.97;;;9.30;99.90;;;;;;4998267;28;20230;-70
2021/12/24 13:16:44;;;;;;;23.13;13.60;;;9.30;99.90;;;;;;4998942;28;20454;-71
2021/12/24 13:24:59;;;;;;;19.03;13.70;;;9.30;99.90;;;;;;4989687;28;20528;-71
2021/12/24 13:27:32;;;;;;;21.70;13.63;;;9.30;99.90;;;;;;4988985;28;20473;-72
2021/12/24 13:30:09;;;;;;;23.33;14.20;;;9.30;99.90;;;;;;4989420;28;20451;-72
2021/12/24 13:32:44;;;;;;;24.80;14.80;;;9.40;99.90;;;;;;4998792;28;20465;-71
2021/12/24 13:35:11;;;;;;;19.00;13.80;;;9.40;99.90;;;;;;5009300;28;20454;-72
2021/12/24 13:37:36;;;;;;;23.00;14.33;;;9.40;99.90;;;;;;5009410;28;20451;-71
2021/12/24 13:40:09;;;;;;;20.80;13.57;;;9.40;99.90;;;;;;5004054;28;20458;-71
2021/12/24 13:42:42;;;;;;;21.50;13.40;;;9.40;99.90;;;;;;4983362;28;20246;-70
2021/12/24 13:45:08;;;;;;;17.10;12.33;;;9.50;99.90;;;;;;4989294;28;20461;-72
2021/12/24 13:50:31;;;;;;;24.83;13.13;;;9.40;99.90;;;;;;5006126;28;20434;-71
2021/12/24 13:55:43;;;;;;;18.93;12.70;;;9.40;99.90;;;;;;4994292;28;20457;-72
2021/12/24 13:58:12;;;;;;;18.70;12.23;;;9.40;99.90;;;;;;4986736;28;20534;-71
2021/12/24 14:00:46;;;;;;;21.10;12.40;;;9.40;99.90;;;;;;4988486;28;20450;-72
2021/12/24 14:03:12;;;;;;;20.73;12.60;;;9.50;99.90;;;;;;4985154;28;20443;-71
2021/12/24 14:05:46;;;;;;;23.13;13.20;;;9.50;99.90;;;;;;4999988;28;20842;-73
2021/12/24 14:08:15;;;;;;;19.80;12.90;;;9.50;99.90;;;;;;4991224;28;20614;-72
2021/12/24 14:10:42;;;;;;;18.00;12.10;;;9.50;99.90;;;;;;4987730;28;20935;-72
2021/12/24 14:13:19;;;;;;;16.53;12.30;;;9.60;99.90;;;;;;4991372;28;20781;-72
2021/12/24 14:16:08;;;;;;;18.27;13.10;;;9.60;99.90;;;;;;4992360;28;20418;-72
2021/12/24 14:18:45;;;;;;;16.77;12.30;;;9.50;99.90;;;;;;4992775;28;20415;-72
2021/12/24 14:21:45;;;;;;;16.23;11.37;;;9.50;99.90;;;;;;4976301;28;20402;-71
2021/12/24 14:24:13;;;;;;;20.40;11.30;;;9.50;99.90;;;;;;4992398;28;20801;-71
2021/12/24 14:26:51;;;;;;;21.90;12.60;;;9.40;99.90;;;;;;4993922;28;20430;-71
2021/12/24 14:29:25;;;;;;;19.93;12.37;;;9.50;99.90;;;;;;4992922;28;20466;-72
2021/12/24 14:31:56;;;;;;;19.60;13.43;;;9.50;99.90;;;;;;4992363;28;20451;-72
2021/12/24 14:34:42;;;;;;;19.07;12.77;;;9.50;99.90;;;;;;4992928;28;20473;-72